Time;durP1;ratioP1;P1;durP2;ratioP2;P2;SDS_P1;SDS_P2;PMS_P1;PMS_P2;Temp;Humidity;BMP_temperature;BMP_pressure;BME280_temperature;BME280_humidity;BME280_pressure;Samples;Min_cycle;Max_cycle;Signal;HPM_P1;HPM_P2
2022/04/07 00:00:09;;;;;;;9.30;6.07;;;;;;;;;;4975394;28;20047;-71
2022/04/07 00:02:35;;;;;;;9.75;5.70;;;;;;;;;;4974678;28;20050;-71
2022/04/07 00:05:01;;;;;;;9.57;5.50;;;;;;;;;;4975660;28;20057;-71
2022/04/07 00:07:27;;;;;;;10.60;5.78;;;;;;;;;;4964160;28;20494;-72
2022/04/07 00:09:53;;;;;;;10.38;5.68;;;;;;;;;;4971798;28;20039;-71
2022/04/07 00:12:19;;;;;;;10.90;5.10;;;;;;;;;;4976078;28;20053;-71
2022/04/07 00:14:45;;;;;;;12.68;5.40;;;;;;;;;;4974173;28;20047;-71
2022/04/07 00:17:11;;;;;;;10.30;4.93;;;;;;;;;;4974921;28;20039;-71
2022/04/07 00:19:38;;;;;;;8.90;4.45;;;;;;;;;;4973613;28;20402;-72
2022/04/07 00:22:04;;;;;;;10.65;5.20;;;;;;;;;;4970663;28;20083;-72
2022/04/07 00:24:30;;;;;;;8.63;4.72;;;;;;;;;;4972819;28;20122;-72
2022/04/07 00:26:56;;;;;;;12.25;5.25;;;;;;;;;;4969505;28;20118;-72
2022/04/07 00:29:22;;;;;;;11.35;5.53;;;;;;;;;;4971139;28;20094;-70
2022/04/07 00:31:55;;;;;;;8.65;5.20;;;;;;;;;;4974764;28;20047;-71
2022/04/07 00:34:22;;;;;;;10.02;5.90;;;;;;;;;;4974085;28;20046;-72
2022/04/07 00:36:47;;;;;;;8.30;6.30;;;;;;;;;;4975367;28;20050;-71
2022/04/07 00:39:13;;;;;;;12.15;6.45;;;;;;;;;;4973639;28;20039;-72
2022/04/07 00:41:40;;;;;;;10.50;6.30;;;;;;;;;;4975360;28;20089;-71
2022/04/07 00:44:08;;;;;;;9.48;6.60;;;;;;;;;;4973867;28;20497;-71
2022/04/07 00:46:35;;;;;;;10.55;6.55;;;;;;;;;;4972843;28;20046;-70
2022/04/07 00:49:02;;;;;;;11.80;7.07;;;;;;;;;;4956391;28;20053;-71
2022/04/07 00:51:28;;;;;;;13.98;7.47;;;;;;;;;;4965206;28;20034;-72
2022/04/07 00:53:54;;;;;;;10.60;7.40;;;;;;;;;;4959317;28;20462;-72
2022/04/07 00:56:20;;;;;;;10.43;6.93;;;;;;;;;;4972778;28;20142;-72
2022/04/07 00:58:47;;;;;;;9.60;7.25;;;;;;;;;;4973416;28;20090;-71
2022/04/07 01:01:13;;;;;;;9.93;6.78;;;;;;;;;;4944807;29;20079;-70
2022/04/07 01:03:39;;;;;;;9.60;6.97;;;;;;;;;;4969447;28;20042;-72
2022/04/07 01:06:05;;;;;;;11.05;6.97;;;;;;;;;;4939395;28;20134;-72
2022/04/07 01:08:31;;;;;;;9.25;7.43;;;;;;;;;;4970210;28;20074;-71
2022/04/07 01:10:58;;;;;;;9.35;6.88;;;;;;;;;;4969660;28;20078;-73
2022/04/07 01:13:24;;;;;;;9.85;6.80;;;;;;;;;;4973444;28;20094;-71
2022/04/07 01:15:50;;;;;;;12.00;7.22;;;;;;;;;;4974525;28;20557;-72
2022/04/07 01:18:16;;;;;;;10.18;7.03;;;;;;;;;;4974043;28;20051;-72
2022/04/07 01:20:42;;;;;;;9.82;6.88;;;;;;;;;;4969324;28;20059;-71
2022/04/07 01:23:08;;;;;;;10.18;7.53;;;;;;;;;;4972513;28;20042;-72
2022/04/07 01:25:34;;;;;;;9.70;7.20;;;;;;;;;;4972530;28;20051;-70
2022/04/07 01:28:00;;;;;;;10.90;7.13;;;;;;;;;;4970002;28;20459;-72
2022/04/07 01:30:26;;;;;;;10.95;7.18;;;;;;;;;;4972542;28;20039;-72
2022/04/07 01:33:00;;;;;;;11.00;6.75;;;;;;;;;;4959363;28;20070;-73
2022/04/07 01:35:26;;;;;;;11.05;6.60;;;;;;;;;;4970162;28;20062;-72
2022/04/07 01:37:53;;;;;;;10.70;6.10;;;;;;;;;;4973222;28;20035;-72
2022/04/07 01:40:22;;;;;;;10.20;6.43;;;;;;;;;;4972456;28;20042;-71
2022/04/07 01:42:50;;;;;;;11.25;6.82;;;;;;;;;;4974060;28;20054;-71
2022/04/07 01:45:17;;;;;;;10.15;5.85;;;;;;;;;;4973273;28;20055;-72
2022/04/07 01:47:44;;;;;;;11.93;5.53;;;;;;;;;;4973789;28;20043;-72
2022/04/07 01:50:10;;;;;;;11.65;6.22;;;;;;;;;;4958910;28;20130;-71
2022/04/07 01:52:39;;;;;;;11.70;5.03;;;;;;;;;;4971981;28;20046;-72
2022/04/07 01:55:06;;;;;;;7.95;5.10;;;;;;;;;;4971935;28;20336;-72
2022/04/07 01:57:32;;;;;;;13.10;5.50;;;;;;;;;;4972627;28;20097;-72
2022/04/07 01:59:59;;;;;;;9.90;5.15;;;;;;;;;;4972523;28;20518;-71
2022/04/07 02:02:25;;;;;;;9.25;4.50;;;;;;;;;;4964494;28;20039;-72
2022/04/07 02:04:58;;;;;;;10.30;4.78;;;;;;;;;;4972537;28;20509;-71
2022/04/07 02:07:31;;;;;;;9.80;4.65;;;;;;;;;;4973125;28;20546;-71
2022/04/07 02:09:58;;;;;;;9.95;4.07;;;;;;;;;;4971336;28;20588;-72
2022/04/07 02:12:27;;;;;;;10.10;3.20;;;;;;;;;;4974313;28;20457;-72
2022/04/07 02:14:53;;;;;;;10.80;2.85;;;;;;;;;;4972757;28;20047;-71
2022/04/07 02:17:22;;;;;;;8.93;2.70;;;;;;;;;;4973900;28;20093;-73
2022/04/07 02:19:49;;;;;;;10.57;2.95;;;;;;;;;;4973072;28;20043;-71
2022/04/07 02:22:15;;;;;;;12.88;3.50;;;;;;;;;;4968802;28;20081;-72
2022/04/07 02:24:41;;;;;;;12.82;3.67;;;;;;;;;;4972484;28;20046;-73
2022/04/07 02:27:08;;;;;;;14.25;3.75;;;;;;;;;;4969015;28;20140;-72
2022/04/07 02:29:34;;;;;;;14.00;4.00;;;;;;;;;;4967128;28;20054;-73
2022/04/07 02:32:00;;;;;;;9.95;4.07;;;;;;;;;;4972055;28;20494;-71
2022/04/07 02:34:26;;;;;;;11.50;4.20;;;;;;;;;;4975537;28;20505;-71
2022/04/07 02:36:52;;;;;;;12.68;4.20;;;;;;;;;;4972661;28;20081;-70
2022/04/07 02:39:18;;;;;;;16.17;4.50;;;;;;;;;;4976184;28;20098;-71
2022/04/07 02:41:44;;;;;;;12.65;4.47;;;;;;;;;;4976481;28;20038;-71
2022/04/07 02:44:10;;;;;;;12.80;4.38;;;;;;;;;;4975927;28;20069;-72
2022/04/07 02:46:37;;;;;;;14.05;3.97;;;;;;;;;;4977012;28;20413;-71
2022/04/07 02:49:03;;;;;;;13.40;4.78;;;;;;;;;;4976363;28;20601;-71
2022/04/07 02:51:31;;;;;;;12.75;4.32;;;;;;;;;;4973379;28;20518;-71
2022/04/07 02:53:58;;;;;;;13.73;4.63;;;;;;;;;;4976493;28;20418;-71
2022/04/07 02:56:25;;;;;;;18.35;4.70;;;;;;;;;;4974466;28;20450;-71
2022/04/07 02:58:51;;;;;;;16.50;5.50;;;;;;;;;;4972309;28;20513;-71
2022/04/07 03:01:17;;;;;;;17.35;5.20;;;;;;;;;;4976339;28;20043;-70
2022/04/07 03:03:43;;;;;;;18.80;4.95;;;;;;;;;;4974011;28;20039;-70
2022/04/07 03:06:09;;;;;;;14.85;4.65;;;;;;;;;;4976949;28;20066;-72
2022/04/07 03:08:35;;;;;;;15.38;4.78;;;;;;;;;;4976029;28;20043;-71
2022/04/07 03:11:01;;;;;;;13.50;4.80;;;;;;;;;;4976976;28;20049;-73
2022/04/07 03:13:27;;;;;;;13.43;4.60;;;;;;;;;;4976605;28;20061;-72
2022/04/07 03:15:53;;;;;;;12.30;4.38;;;;;;;;;;4976880;28;20085;-72
2022/04/07 03:18:20;;;;;;;12.20;4.20;;;;;;;;;;4975950;28;20541;-70
2022/04/07 03:20:46;;;;;;;15.20;4.82;;;;;;;;;;4937344;28;20101;-71
2022/04/07 03:23:12;;;;;;;9.35;3.85;;;;;;;;;;4975238;28;20050;-70
2022/04/07 03:25:38;;;;;;;11.88;3.95;;;;;;;;;;4966351;28;20042;-71
2022/04/07 03:28:04;;;;;;;11.93;3.95;;;;;;;;;;4941610;28;20137;-72
2022/04/07 03:30:30;;;;;;;15.30;4.20;;;;;;;;;;4975931;28;20410;-71
2022/04/07 03:32:56;;;;;;;13.23;3.78;;;;;;;;;;4974429;28;20206;-71
2022/04/07 03:35:22;;;;;;;13.25;3.67;;;;;;;;;;4972766;28;20561;-73
2022/04/07 03:37:49;;;;;;;12.43;3.85;;;;;;;;;;4974906;28;20035;-71
2022/04/07 03:40:14;;;;;;;14.35;4.20;;;;;;;;;;4973076;28;20460;-72
2022/04/07 03:42:41;;;;;;;12.60;4.40;;;;;;;;;;4976217;28;20053;-71
2022/04/07 03:45:07;;;;;;;14.52;4.75;;;;;;;;;;4975325;28;20126;-72
2022/04/07 03:47:33;;;;;;;13.27;4.80;;;;;;;;;;4976294;28;20486;-71
2022/04/07 03:50:00;;;;;;;12.45;4.40;;;;;;;;;;4972113;28;20043;-70
2022/04/07 03:52:26;;;;;;;9.68;3.33;;;;;;;;;;4975000;28;20130;-71
2022/04/07 03:54:52;;;;;;;10.93;3.42;;;;;;;;;;4974936;28;20404;-71
2022/04/07 03:57:19;;;;;;;10.40;3.10;;;;;;;;;;4973305;28;20484;-71
2022/04/07 03:59:45;;;;;;;9.25;3.03;;;;;;;;;;4963322;28;20548;-71
2022/04/07 04:02:12;;;;;;;8.98;3.35;;;;;;;;;;4973827;28;20387;-71
2022/04/07 04:04:38;;;;;;;9.23;3.42;;;;;;;;;;4961698;28;20050;-72
2022/04/07 04:07:04;;;;;;;8.90;3.47;;;;;;;;;;4975618;28;20490;-72
2022/04/07 04:09:31;;;;;;;9.95;3.03;;;;;;;;;;4973413;28;20046;-72
2022/04/07 04:11:57;;;;;;;8.48;3.10;;;;;;;;;;4956834;28;20447;-71
2022/04/07 04:14:23;;;;;;;9.50;3.22;;;;;;;;;;4974785;28;20046;-72
2022/04/07 04:16:49;;;;;;;11.00;3.92;;;;;;;;;;4974926;28;20053;-71
2022/04/07 04:19:15;;;;;;;10.50;3.83;;;;;;;;;;4974307;28;20047;-71
2022/04/07 04:21:42;;;;;;;12.93;3.63;;;;;;;;;;4972641;28;20070;-71
2022/04/07 04:24:12;;;;;;;12.68;3.85;;;;;;;;;;4971206;28;20560;-71
2022/04/07 04:26:38;;;;;;;13.82;3.80;;;;;;;;;;4939472;28;20051;-71
2022/04/07 04:29:04;;;;;;;14.45;3.80;;;;;;;;;;4975139;28;20121;-72
2022/04/07 04:31:30;;;;;;;14.75;4.40;;;;;;;;;;4973884;28;20047;-72
2022/04/07 04:33:56;;;;;;;20.17;4.60;;;;;;;;;;4956634;28;20047;-71
2022/04/07 04:36:22;;;;;;;17.55;4.07;;;;;;;;;;4973549;28;20085;-72
2022/04/07 04:38:49;;;;;;;19.17;4.35;;;;;;;;;;4974371;28;20043;-71
2022/04/07 04:41:15;;;;;;;19.60;4.18;;;;;;;;;;4974341;28;20082;-72
2022/04/07 04:43:41;;;;;;;17.35;4.00;;;;;;;;;;4973846;28;20470;-72
2022/04/07 04:46:08;;;;;;;16.40;3.85;;;;;;;;;;4974785;28;20494;-71
2022/04/07 04:48:34;;;;;;;22.85;4.47;;;;;;;;;;4956730;28;20054;-72
2022/04/07 04:51:02;;;;;;;14.20;4.03;;;;;;;;;;4967792;28;20407;-72
2022/04/07 04:53:29;;;;;;;17.20;4.25;;;;;;;;;;4972182;28;20057;-72
2022/04/07 04:55:55;;;;;;;22.25;3.85;;;;;;;;;;4973082;28;20132;-72
2022/04/07 04:58:21;;;;;;;16.77;4.18;;;;;;;;;;4955344;28;20043;-70
2022/04/07 05:00:47;;;;;;;20.05;4.07;;;;;;;;;;4974102;28;20074;-72
2022/04/07 05:03:13;;;;;;;18.15;4.53;;;;;;;;;;4957197;28;20089;-71
2022/04/07 05:05:39;;;;;;;24.25;5.03;;;;;;;;;;4973333;28;20130;-71
2022/04/07 05:08:06;;;;;;;17.52;4.18;;;;;;;;;;4974137;28;20035;-71
2022/04/07 05:10:32;;;;;;;21.65;5.15;;;;;;;;;;4950756;28;20057;-72
2022/04/07 05:12:58;;;;;;;18.50;5.03;;;;;;;;;;4974304;28;20046;-71
2022/04/07 05:15:25;;;;;;;18.63;4.60;;;;;;;;;;4973055;28;20042;-72
2022/04/07 05:17:51;;;;;;;21.20;5.20;;;;;;;;;;4968584;28;20520;-71
2022/04/07 05:20:18;;;;;;;22.58;5.25;;;;;;;;;;4971466;28;20086;-72
2022/04/07 05:22:44;;;;;;;17.30;4.65;;;;;;;;;;4971501;28;20109;-72
2022/04/07 05:25:10;;;;;;;16.42;4.35;;;;;;;;;;4972494;28;20042;-72
2022/04/07 05:27:37;;;;;;;21.77;5.30;;;;;;;;;;4973334;28;20061;-72
2022/04/07 05:30:04;;;;;;;19.55;5.35;;;;;;;;;;4971562;28;20041;-71
2022/04/07 05:32:30;;;;;;;18.63;4.85;;;;;;;;;;4971999;28;20043;-71
2022/04/07 05:34:56;;;;;;;16.08;4.75;;;;;;;;;;4968560;28;20406;-71
2022/04/07 05:37:22;;;;;;;18.90;5.43;;;;;;;;;;4972397;28;20041;-72
2022/04/07 05:39:48;;;;;;;18.63;4.95;;;;;;;;;;4971038;28;20057;-72
2022/04/07 05:42:14;;;;;;;18.80;4.82;;;;;;;;;;4973418;28;20039;-71
2022/04/07 05:44:40;;;;;;;20.33;5.55;;;;;;;;;;4970169;28;20047;-72
2022/04/07 05:47:08;;;;;;;15.63;4.50;;;;;;;;;;4956512;28;20113;-72
2022/04/07 05:49:34;;;;;;;16.83;5.10;;;;;;;;;;4973257;28;20086;-72
2022/04/07 05:52:02;;;;;;;13.73;4.80;;;;;;;;;;4973933;28;20132;-72
2022/04/07 05:54:28;;;;;;;14.38;4.82;;;;;;;;;;4973311;28;20459;-72
2022/04/07 05:56:54;;;;;;;16.63;3.90;;;;;;;;;;4973600;28;20050;-72
2022/04/07 05:59:21;;;;;;;15.63;4.00;;;;;;;;;;4973257;28;20055;-72
2022/04/07 06:01:47;;;;;;;17.77;4.20;;;;;;;;;;4972456;28;20489;-72
2022/04/07 06:04:13;;;;;;;16.80;4.32;;;;;;;;;;4958497;28;20039;-72
2022/04/07 06:06:39;;;;;;;17.20;4.28;;;;;;;;;;4971406;28;20055;-72
2022/04/07 06:09:05;;;;;;;13.13;4.18;;;;;;;;;;4967695;28;20056;-73
2022/04/07 06:11:31;;;;;;;13.75;3.70;;;;;;;;;;4973469;28;20054;-72
2022/04/07 06:13:57;;;;;;;18.92;4.55;;;;;;;;;;4939066;28;20478;-73
2022/04/07 06:16:23;;;;;;;16.98;5.47;;;;;;;;;;4972904;28;20131;-72
2022/04/07 06:18:51;;;;;;;7.25;0.80;;;;;;;;;;4969261;28;20047;-73
2022/04/07 06:21:17;;;;;;;7.72;1.20;;;;;;;;;;4966943;28;20058;-72
2022/04/07 06:23:43;;;;;;;6.13;0.88;;;;;;;;;;4970587;28;20035;-73
2022/04/07 06:26:09;;;;;;;5.13;0.68;;;;;;;;;;4960498;28;20105;-72
2022/04/07 06:28:35;;;;;;;2.22;0.60;;;;;;;;;;4940877;28;20062;-73
2022/04/07 06:31:01;;;;;;;3.25;0.70;;;;;;;;;;4972714;28;20057;-72
2022/04/07 06:33:27;;;;;;;5.50;0.77;;;;;;;;;;4973464;28;20414;-73
2022/04/07 06:35:53;;;;;;;5.40;0.70;;;;;;;;;;4971706;28;20070;-73
2022/04/07 06:38:20;;;;;;;5.68;0.80;;;;;;;;;;4972508;28;20043;-73
2022/04/07 06:40:46;;;;;;;4.80;0.82;;;;;;;;;;4971242;28;20047;-73
2022/04/07 06:43:12;;;;;;;5.82;0.80;;;;;;;;;;4973838;28;20043;-71
2022/04/07 06:45:38;;;;;;;4.82;1.00;;;;;;;;;;4954761;28;20513;-72
2022/04/07 06:48:04;;;;;;;5.70;1.10;;;;;;;;;;4956160;28;20051;-73
2022/04/07 06:50:31;;;;;;;6.00;0.90;;;;;;;;;;4954957;28;20482;-72
2022/04/07 06:52:57;;;;;;;3.70;0.80;;;;;;;;;;4973145;28;20525;-72
2022/04/07 06:55:24;;;;;;;7.40;2.03;;;;;;;;;;4970159;28;20067;-72
2022/04/07 06:57:53;;;;;;;6.78;0.93;;;;;;;;;;4970440;28;20046;-73
2022/04/07 07:00:20;;;;;;;5.25;0.82;;;;;;;;;;4966141;28;20051;-73
2022/04/07 07:02:47;;;;;;;4.45;0.70;;;;;;;;;;4944557;29;20039;-73
2022/04/07 07:05:13;;;;;;;3.63;0.60;;;;;;;;;;4951459;28;20125;-72
2022/04/07 07:07:39;;;;;;;3.67;0.70;;;;;;;;;;4972831;28;20094;-73
2022/04/07 07:10:05;;;;;;;5.68;0.95;;;;;;;;;;4925050;29;20483;-72
2022/04/07 07:12:31;;;;;;;6.82;2.00;;;;;;;;;;4955627;28;20047;-72
2022/04/07 07:14:58;;;;;;;5.70;1.40;;;;;;;;;;4963878;28;20473;-73
2022/04/07 07:17:24;;;;;;;4.25;0.93;;;;;;;;;;4962862;28;20086;-73
2022/04/07 07:19:50;;;;;;;6.32;1.00;;;;;;;;;;4971560;28;20524;-73
2022/04/07 07:22:16;;;;;;;4.03;1.00;;;;;;;;;;4976429;28;20090;-72
2022/04/07 07:24:42;;;;;;;5.20;0.90;;;;;;;;;;4968296;28;20055;-72
2022/04/07 07:27:08;;;;;;;3.80;0.80;;;;;;;;;;4975874;28;20046;-73
2022/04/07 07:29:34;;;;;;;5.68;1.30;;;;;;;;;;4976762;28;20054;-73
2022/04/07 07:32:00;;;;;;;4.57;0.85;;;;;;;;;;4976074;28;20039;-72
2022/04/07 07:34:26;;;;;;;3.95;1.27;;;;;;;;;;4976091;28;20053;-72
2022/04/07 07:36:52;;;;;;;4.65;0.80;;;;;;;;;;4959264;28;20126;-72
2022/04/07 07:39:18;;;;;;;7.78;1.10;;;;;;;;;;4976412;28;20092;-71
2022/04/07 07:41:45;;;;;;;3.03;0.80;;;;;;;;;;4975199;28;20231;-73
2022/04/07 07:44:11;;;;;;;2.83;0.70;;;;;;;;;;4976502;28;20046;-73
2022/04/07 07:46:37;;;;;;;4.25;0.80;;;;;;;;;;4976554;28;20055;-73
2022/04/07 07:49:06;;;;;;;4.55;0.90;;;;;;;;;;4958764;28;20049;-73
2022/04/07 07:51:32;;;;;;;3.67;0.80;;;;;;;;;;4961465;28;20054;-80
2022/04/07 07:53:58;;;;;;;5.38;0.90;;;;;;;;;;4976322;28;20129;-72
2022/04/07 07:56:24;;;;;;;4.50;0.93;;;;;;;;;;4976104;28;20070;-72
2022/04/07 07:58:50;;;;;;;5.75;1.17;;;;;;;;;;4975197;28;20043;-72
2022/04/07 08:01:17;;;;;;;4.47;0.90;;;;;;;;;;4967495;28;20142;-73
2022/04/07 08:03:43;;;;;;;4.55;0.82;;;;;;;;;;4956781;28;20054;-72
2022/04/07 08:06:09;;;;;;;4.47;0.90;;;;;;;;;;4971224;28;20058;-71
2022/04/07 08:08:35;;;;;;;5.55;0.90;;;;;;;;;;4947832;28;20557;-73
2022/04/07 08:11:01;;;;;;;5.25;1.08;;;;;;;;;;4974125;28;20074;-73
2022/04/07 08:13:27;;;;;;;5.53;1.13;;;;;;;;;;4975911;28;20086;-71
2022/04/07 08:15:53;;;;;;;5.40;1.13;;;;;;;;;;4958731;28;20046;-73
2022/04/07 08:18:19;;;;;;;5.45;1.10;;;;;;;;;;4975852;28;20465;-71
2022/04/07 08:20:45;;;;;;;4.85;0.90;;;;;;;;;;4975679;28;20560;-73
2022/04/07 08:23:12;;;;;;;3.35;0.93;;;;;;;;;;4975491;28;20494;-73
2022/04/07 08:25:38;;;;;;;3.30;1.00;;;;;;;;;;4976005;28;20057;-72
2022/04/07 08:28:05;;;;;;;4.60;1.00;;;;;;;;;;4975770;28;20050;-71
2022/04/07 08:30:34;;;;;;;7.25;1.00;;;;;;;;;;4973454;28;20043;-72
2022/04/07 08:33:00;;;;;;;4.85;0.90;;;;;;;;;;4974112;28;20053;-72
2022/04/07 08:35:26;;;;;;;6.80;1.13;;;;;;;;;;4963230;28;20050;-71
2022/04/07 08:37:52;;;;;;;5.88;1.20;;;;;;;;;;4962988;28;20066;-72
2022/04/07 08:40:20;;;;;;;6.10;1.10;;;;;;;;;;4975632;28;20046;-72
2022/04/07 08:42:46;;;;;;;4.43;1.05;;;;;;;;;;4959659;28;20101;-72
2022/04/07 08:45:12;;;;;;;5.63;1.17;;;;;;;;;;4956412;29;20083;-73
2022/04/07 08:47:40;;;;;;;7.25;1.08;;;;;;;;;;4969923;28;20043;-72
2022/04/07 08:50:07;;;;;;;7.25;1.10;;;;;;;;;;4970194;28;20057;-74
2022/04/07 08:52:33;;;;;;;5.43;0.80;;;;;;;;;;4968443;28;20438;-72
2022/04/07 08:54:59;;;;;;;4.85;0.98;;;;;;;;;;4957806;28;20098;-72
2022/04/07 08:57:26;;;;;;;5.13;1.20;;;;;;;;;;4968477;28;20131;-72
2022/04/07 08:59:52;;;;;;;7.05;1.92;;;;;;;;;;4970311;28;20509;-73
2022/04/07 09:02:19;;;;;;;9.30;3.00;;;;;;;;;;4975117;28;20505;-73
2022/04/07 09:04:45;;;;;;;8.55;2.55;;;;;;;;;;4975246;28;20054;-73
2022/04/07 09:07:14;;;;;;;10.80;4.80;;;;;;;;;;4974500;28;20043;-72
2022/04/07 09:09:41;;;;;;;8.05;2.45;;;;;;;;;;4972170;28;20089;-72
2022/04/07 09:12:07;;;;;;;6.85;2.85;;;;;;;;;;4957954;28;20047;-73
2022/04/07 09:14:34;;;;;;;10.43;4.30;;;;;;;;;;4974117;28;20046;-73
2022/04/07 09:17:00;;;;;;;7.20;2.33;;;;;;;;;;4949096;29;20054;-72
2022/04/07 09:19:26;;;;;;;7.25;2.28;;;;;;;;;;4968916;28;20130;-72
2022/04/07 09:22:06;;;;;;;8.85;3.58;;;;;;;;;;4974563;28;20418;-73
2022/04/07 09:24:33;;;;;;;6.85;1.80;;;;;;;;;;4972945;28;20058;-72
2022/04/07 09:26:59;;;;;;;5.97;1.50;;;;;;;;;;4957304;28;20410;-72
2022/04/07 09:29:37;;;;;;;6.32;1.77;;;;;;;;;;4974299;28;20384;-73
2022/04/07 09:32:04;;;;;;;8.18;1.40;;;;;;;;;;4973064;28;20034;-73
2022/04/07 09:34:33;;;;;;;7.75;1.20;;;;;;;;;;4974358;28;20047;-73
2022/04/07 09:37:19;;;;;;;6.80;1.30;;;;;;;;;;4966991;28;20098;-72
2022/04/07 09:39:46;;;;;;;7.40;1.50;;;;;;;;;;4962619;28;20043;-72
2022/04/07 09:42:22;;;;;;;7.78;1.35;;;;;;;;;;4960734;28;20044;-72
2022/04/07 09:44:52;;;;;;;7.38;1.55;;;;;;;;;;4962077;28;20129;-72
2022/04/07 09:47:19;;;;;;;7.65;1.25;;;;;;;;;;4974046;28;20487;-72
2022/04/07 09:49:45;;;;;;;6.32;1.40;;;;;;;;;;4971894;28;20406;-71
2022/04/07 09:52:12;;;;;;;8.13;1.10;;;;;;;;;;4961217;28;20388;-73
2022/04/07 09:54:41;;;;;;;9.50;1.67;;;;;;;;;;4965766;28;20039;-73
2022/04/07 09:57:11;;;;;;;6.90;1.27;;;;;;;;;;4966058;28;20058;-71
2022/04/07 09:59:40;;;;;;;13.75;1.67;;;;;;;;;;4960920;28;20125;-73
2022/04/07 10:02:06;;;;;;;8.98;1.75;;;;;;;;;;4962576;28;20038;-73
2022/04/07 10:04:36;;;;;;;9.73;1.40;;;;;;;;;;4962517;28;20060;-74
2022/04/07 10:07:04;;;;;;;9.48;1.77;;;;;;;;;;4964486;28;20047;-73
2022/04/07 10:09:30;;;;;;;8.27;1.67;;;;;;;;;;4949795;28;20401;-72
2022/04/07 10:11:56;;;;;;;9.38;1.88;;;;;;;;;;4965838;28;20801;-72
2022/04/07 10:14:24;;;;;;;11.77;1.98;;;;;;;;;;4970620;28;20185;-74
2022/04/07 10:16:50;;;;;;;12.48;1.75;;;;;;;;;;4966838;28;20137;-73
2022/04/07 10:19:23;;;;;;;8.52;1.70;;;;;;;;;;4968728;28;20463;-72
2022/04/07 10:21:57;;;;;;;11.23;1.83;;;;;;;;;;4969170;28;20047;-72
2022/04/07 10:24:23;;;;;;;12.00;2.00;;;;;;;;;;4963911;28;20122;-72
2022/04/07 10:26:50;;;;;;;9.43;1.77;;;;;;;;;;4970610;28;20209;-71
2022/04/07 10:29:20;;;;;;;13.10;2.25;;;;;;;;;;4963682;28;20078;-73
2022/04/07 10:32:05;;;;;;;11.20;1.90;;;;;;;;;;4949946;28;20142;-72
2022/04/07 10:34:34;;;;;;;13.10;1.95;;;;;;;;;;4960240;28;20051;-73
2022/04/07 10:37:05;;;;;;;9.07;1.83;;;;;;;;;;4965788;28;20082;-73
2022/04/07 10:39:34;;;;;;;10.93;1.70;;;;;;;;;;4959269;28;20038;-73
2022/04/07 10:42:01;;;;;;;11.60;1.88;;;;;;;;;;4964576;28;20109;-73
2022/04/07 10:44:28;;;;;;;12.65;2.28;;;;;;;;;;4962616;28;20066;-73
2022/04/07 10:47:12;;;;;;;12.98;2.13;;;;;;;;;;4966870;28;20407;-73
2022/04/07 10:49:46;;;;;;;12.27;2.08;;;;;;;;;;4967578;28;20061;-74
2022/04/07 10:52:26;;;;;;;11.15;2.40;;;;;;;;;;4952400;28;20398;-72
2022/04/07 10:55:23;;;;;;;11.20;2.13;;;;;;;;;;4973404;28;20043;-72
2022/04/07 10:58:08;;;;;;;16.52;2.65;;;;;;;;;;4959581;28;20152;-73
2022/04/07 11:00:40;;;;;;;14.13;2.22;;;;;;;;;;4977346;28;20035;-72
2022/04/07 11:03:16;;;;;;;10.73;2.22;;;;;;;;;;4960328;28;20042;-72
2022/04/07 11:05:52;;;;;;;17.08;2.78;;;;;;;;;;4977346;28;20058;-72
2022/04/07 11:08:22;;;;;;;16.13;3.05;;;;;;;;;;4976602;28;20486;-71
2022/04/07 11:10:48;;;;;;;12.70;1.95;;;;;;;;;;4968486;28;20054;-73
2022/04/07 11:13:15;;;;;;;13.50;2.53;;;;;;;;;;4953987;28;20505;-72
2022/04/07 11:15:51;;;;;;;13.50;2.83;;;;;;;;;;4950220;28;20046;-73
2022/04/07 11:18:30;;;;;;;12.55;2.10;;;;;;;;;;4969161;28;20466;-71
2022/04/07 11:21:07;;;;;;;15.38;2.50;;;;;;;;;;4951862;28;20055;-71
2022/04/07 11:23:44;;;;;;;12.65;2.55;;;;;;;;;;4973524;28;20059;-71
2022/04/07 11:26:19;;;;;;;11.55;2.17;;;;;;;;;;4970374;28;20047;-73
2022/04/07 11:29:03;;;;;;;9.88;2.35;;;;;;;;;;4964062;28;20051;-72
2022/04/07 11:31:55;;;;;;;14.43;2.83;;;;;;;;;;4966021;28;20035;-72
2022/04/07 11:34:37;;;;;;;9.02;1.95;;;;;;;;;;4965729;28;20055;-72
2022/04/07 11:37:15;;;;;;;11.05;1.98;;;;;;;;;;4966928;28;20085;-73
2022/04/07 11:39:42;;;;;;;10.05;2.38;;;;;;;;;;4972594;28;20067;-72
2022/04/07 11:42:08;;;;;;;12.85;2.30;;;;;;;;;;4969667;28;20039;-72
2022/04/07 11:44:34;;;;;;;14.05;2.40;;;;;;;;;;4971357;28;20050;-72
2022/04/07 11:47:01;;;;;;;13.15;2.70;;;;;;;;;;4966455;28;20491;-73
2022/04/07 11:49:28;;;;;;;18.27;2.65;;;;;;;;;;4968717;28;20035;-73
2022/04/07 11:51:54;;;;;;;12.35;2.65;;;;;;;;;;4953062;28;20122;-72
2022/04/07 11:54:21;;;;;;;15.70;3.08;;;;;;;;;;4968659;28;20087;-72
2022/04/07 11:56:48;;;;;;;14.20;2.97;;;;;;;;;;4969781;28;20061;-72
2022/04/07 11:59:14;;;;;;;14.07;2.90;;;;;;;;;;4963479;28;20043;-73
2022/04/07 12:01:40;;;;;;;16.63;2.70;;;;;;;;;;4947852;28;20046;-73
2022/04/07 12:04:09;;;;;;;15.45;2.72;;;;;;;;;;4965096;28;20047;-72
2022/04/07 12:06:35;;;;;;;12.70;2.45;;;;;;;;;;4966766;28;20051;-72
2022/04/07 12:09:03;;;;;;;12.07;2.70;;;;;;;;;;4965583;28;20047;-74
2022/04/07 12:11:30;;;;;;;19.90;2.90;;;;;;;;;;4963219;28;20606;-72
2022/04/07 12:13:57;;;;;;;12.30;2.47;;;;;;;;;;4974902;28;20043;-72
2022/04/07 12:16:24;;;;;;;11.68;2.55;;;;;;;;;;4976455;28;20039;-73
2022/04/07 12:18:57;;;;;;;17.95;2.75;;;;;;;;;;4976242;28;20083;-72
2022/04/07 12:21:23;;;;;;;13.45;2.80;;;;;;;;;;4956906;28;20406;-73
2022/04/07 12:23:52;;;;;;;19.77;2.83;;;;;;;;;;4975641;28;20050;-73
2022/04/07 12:26:18;;;;;;;10.75;2.17;;;;;;;;;;4974963;28;20053;-72
2022/04/07 12:28:44;;;;;;;15.68;2.95;;;;;;;;;;4976161;28;20057;-73
2022/04/07 12:31:14;;;;;;;13.70;2.38;;;;;;;;;;4975027;28;20845;-72
2022/04/07 12:33:41;;;;;;;13.25;2.00;;;;;;;;;;4943692;28;20051;-73
2022/04/07 12:36:08;;;;;;;15.60;2.90;;;;;;;;;;4958309;28;20066;-73
2022/04/07 12:38:36;;;;;;;14.10;2.88;;;;;;;;;;4975349;28;20122;-72
2022/04/07 12:41:10;;;;;;;13.65;2.75;;;;;;;;;;4958388;28;20054;-72
2022/04/07 12:43:42;;;;;;;12.63;2.28;;;;;;;;;;4973841;28;20387;-72
2022/04/07 12:46:09;;;;;;;13.25;2.33;;;;;;;;;;4975331;28;20047;-72
2022/04/07 12:48:35;;;;;;;10.05;1.92;;;;;;;;;;4976275;28;20151;-73
2022/04/07 12:51:21;;;;;;;15.77;3.33;;;;;;;;;;4976270;28;20108;-73
2022/04/07 12:53:47;;;;;;;16.17;2.50;;;;;;;;;;4975937;28;20069;-73
2022/04/07 12:56:20;;;;;;;14.85;2.50;;;;;;;;;;4958616;28;20043;-72
2022/04/07 12:58:46;;;;;;;9.30;2.13;;;;;;;;;;4973281;28;20067;-73
2022/04/07 13:01:21;;;;;;;9.38;2.10;;;;;;;;;;4971646;28;20043;-74
2022/04/07 13:03:51;;;;;;;10.27;2.05;;;;;;;;;;4967271;28;20054;-73
2022/04/07 13:06:17;;;;;;;10.82;2.10;;;;;;;;;;4972249;28;20051;-72
2022/04/07 13:08:43;;;;;;;13.50;1.70;;;;;;;;;;4972420;28;20047;-72
2022/04/07 13:11:09;;;;;;;14.05;2.35;;;;;;;;;;4964193;28;20054;-71
2022/04/07 13:13:35;;;;;;;14.05;2.30;;;;;;;;;;4966878;28;20055;-73
2022/04/07 13:16:01;;;;;;;13.05;2.15;;;;;;;;;;4963618;28;20058;-72
2022/04/07 13:18:27;;;;;;;10.43;1.95;;;;;;;;;;4964069;28;20038;-72
2022/04/07 13:20:53;;;;;;;14.55;2.67;;;;;;;;;;4969593;28;20063;-74
2022/04/07 13:23:19;;;;;;;10.93;1.95;;;;;;;;;;4965546;28;20117;-71
2022/04/07 13:25:45;;;;;;;5.97;1.25;;;;;;;;;;4970132;28;20054;-72
2022/04/07 13:28:11;;;;;;;5.63;1.38;;;;;;;;;;4951509;29;20051;-72
2022/04/07 13:30:38;;;;;;;6.93;1.00;;;;;;;;;;4967922;28;20055;-72
2022/04/07 13:33:04;;;;;;;6.75;1.35;;;;;;;;;;4972784;28;20055;-72
2022/04/07 13:35:30;;;;;;;7.03;1.27;;;;;;;;;;4970458;28;20469;-73
2022/04/07 13:37:58;;;;;;;7.45;1.65;;;;;;;;;;4951985;28;20043;-72
2022/04/07 13:40:26;;;;;;;9.35;1.40;;;;;;;;;;4966004;28;20049;-72
2022/04/07 13:42:52;;;;;;;10.75;1.90;;;;;;;;;;4933248;29;20063;-73
2022/04/07 13:45:18;;;;;;;9.90;1.85;;;;;;;;;;4970670;28;20094;-72
2022/04/07 13:47:44;;;;;;;13.38;2.53;;;;;;;;;;4963276;28;20059;-73
2022/04/07 13:50:10;;;;;;;9.25;1.67;;;;;;;;;;4959579;28;20572;-72
2022/04/07 13:52:36;;;;;;;15.60;2.20;;;;;;;;;;4970466;28;20498;-73
2022/04/07 13:55:02;;;;;;;9.68;2.10;;;;;;;;;;4972701;28;20043;-72
2022/04/07 13:57:28;;;;;;;9.73;1.95;;;;;;;;;;4965397;28;20114;-72
2022/04/07 13:59:54;;;;;;;8.40;1.75;;;;;;;;;;4973174;28;20081;-73
2022/04/07 14:02:20;;;;;;;8.25;2.08;;;;;;;;;;4967796;28;20075;-73
2022/04/07 14:04:46;;;;;;;9.55;1.83;;;;;;;;;;4963221;28;20395;-72
2022/04/07 14:07:12;;;;;;;10.35;2.35;;;;;;;;;;4972074;28;20455;-71
2022/04/07 14:09:39;;;;;;;7.53;1.55;;;;;;;;;;4967360;28;20483;-72
2022/04/07 14:12:05;;;;;;;10.95;2.03;;;;;;;;;;4970203;28;20549;-72
2022/04/07 14:14:31;;;;;;;9.00;1.65;;;;;;;;;;4962579;28;20421;-72
2022/04/07 14:16:57;;;;;;;12.57;1.70;;;;;;;;;;4956577;28;20085;-72
2022/04/07 14:19:24;;;;;;;8.70;2.00;;;;;;;;;;4973375;28;20070;-72
2022/04/07 14:21:50;;;;;;;11.13;2.13;;;;;;;;;;4973475;28;20058;-72
2022/04/07 14:24:17;;;;;;;10.48;2.30;;;;;;;;;;4970492;28;20059;-72
2022/04/07 14:26:43;;;;;;;13.20;2.28;;;;;;;;;;4954249;28;20133;-74
2022/04/07 14:29:09;;;;;;;9.07;1.75;;;;;;;;;;4974071;28;20235;-74
2022/04/07 14:31:36;;;;;;;17.30;2.42;;;;;;;;;;4971636;28;20082;-72
2022/04/07 14:34:03;;;;;;;8.85;2.05;;;;;;;;;;4976666;28;20054;-72
2022/04/07 14:36:30;;;;;;;11.25;2.00;;;;;;;;;;4969572;28;20054;-72